sensor_id;sensor_type;location;lat;lon;timestamp;pressure;altitude;pressure_sealevel;temperature;humidity
61874;BME280;49692;55.052;73.310;2022-10-20T00:00:10;99233.06;;;6.23;88.62
61874;BME280;49692;55.052;73.310;2022-10-20T00:02:47;99240.81;;;5.99;89.16
61874;BME280;49692;55.052;73.310;2022-10-20T00:05:19;99239.56;;;6.11;88.98
61874;BME280;49692;55.052;73.310;2022-10-20T00:07:49;99236.59;;;6.22;88.67
61874;BME280;49692;55.052;73.310;2022-10-20T00:10:27;99239.03;;;5.99;89.19
61874;BME280;49692;55.052;73.310;2022-10-20T00:12:59;99237.63;;;6.16;89.05
61874;BME280;49692;55.052;73.310;2022-10-20T00:15:26;99233.44;;;6.12;89.36
61874;BME280;49692;55.052;73.310;2022-10-20T00:17:52;99241.38;;;6.07;89.24
61874;BME280;49692;55.052;73.310;2022-10-20T00:20:20;99242.75;;;6.19;88.16
61874;BME280;49692;55.052;73.310;2022-10-20T00:22:47;99242.44;;;6.01;88.89
61874;BME280;49692;55.052;73.310;2022-10-20T00:25:14;99243.31;;;6.02;89.17
61874;BME280;49692;55.052;73.310;2022-10-20T00:27:44;99246.25;;;6.18;88.68
61874;BME280;49692;55.052;73.310;2022-10-20T00:30:12;99244.69;;;6.14;88.64
61874;BME280;49692;55.052;73.310;2022-10-20T00:32:40;99243.56;;;6.21;88.87
61874;BME280;49692;55.052;73.310;2022-10-20T00:35:07;99248.84;;;6.19;88.77
61874;BME280;49692;55.052;73.310;2022-10-20T00:37:35;99245.84;;;6.05;88.67
61874;BME280;49692;55.052;73.310;2022-10-20T00:40:02;99241.28;;;6.10;89.22
61874;BME280;49692;55.052;73.310;2022-10-20T00:42:45;99243.75;;;6.15;89.46
61874;BME280;49692;55.052;73.310;2022-10-20T00:45:16;99258.25;;;5.97;89.92
61874;BME280;49692;55.052;73.310;2022-10-20T00:47:46;99254.34;;;6.10;89.32
61874;BME280;49692;55.052;73.310;2022-10-20T00:50:28;99246.34;;;6.15;88.89
61874;BME280;49692;55.052;73.310;2022-10-20T00:52:58;99252.25;;;6.22;89.14
61874;BME280;49692;55.052;73.310;2022-10-20T00:55:29;99254.09;;;6.18;89.19
61874;BME280;49692;55.052;73.310;2022-10-20T00:58:01;99260.22;;;6.17;88.62
61874;BME280;49692;55.052;73.310;2022-10-20T01:00:40;99251.78;;;6.09;89.09
61874;BME280;49692;55.052;73.310;2022-10-20T01:03:31;99258.72;;;6.10;89.28
61874;BME280;49692;55.052;73.310;2022-10-20T01:06:06;99265.69;;;6.09;89.24
61874;BME280;49692;55.052;73.310;2022-10-20T01:08:36;99271.88;;;6.07;88.75
61874;BME280;49692;55.052;73.310;2022-10-20T01:17:40;99262.16;;;6.10;89.74
61874;BME280;49692;55.052;73.310;2022-10-20T01:20:16;99265.75;;;6.08;89.58
61874;BME280;49692;55.052;73.310;2022-10-20T01:28:56;99261.16;;;6.41;89.09
61874;BME280;49692;55.052;73.310;2022-10-20T01:31:39;99260.03;;;6.23;88.75
61874;BME280;49692;55.052;73.310;2022-10-20T01:34:17;99261.03;;;6.19;88.91
61874;BME280;49692;55.052;73.310;2022-10-20T01:36:53;99261.91;;;6.18;89.58
61874;BME280;49692;55.052;73.310;2022-10-20T01:39:44;99272.75;;;6.32;88.62
61874;BME280;49692;55.052;73.310;2022-10-20T01:42:22;99263.94;;;6.10;89.38
61874;BME280;49692;55.052;73.310;2022-10-20T01:45:01;99278.47;;;6.17;89.56
61874;BME280;49692;55.052;73.310;2022-10-20T01:47:36;99275.47;;;6.02;89.48
61874;BME280;49692;55.052;73.310;2022-10-20T01:50:22;99280.03;;;6.23;89.66
61874;BME280;49692;55.052;73.310;2022-10-20T01:53:20;99294.75;;;6.25;89.78
61874;BME280;49692;55.052;73.310;2022-10-20T01:55:55;99279.28;;;6.19;89.73
61874;BME280;49692;55.052;73.310;2022-10-20T01:58:42;99289.69;;;6.21;89.12
61874;BME280;49692;55.052;73.310;2022-10-20T02:01:25;99293.22;;;6.18;89.82
61874;BME280;49692;55.052;73.310;2022-10-20T02:04:04;99286.72;;;6.04;90.42
61874;BME280;49692;55.052;73.310;2022-10-20T02:06:45;99295.34;;;6.07;89.63
61874;BME280;49692;55.052;73.310;2022-10-20T02:09:47;99291.69;;;6.12;89.38
61874;BME280;49692;55.052;73.310;2022-10-20T02:12:20;99298.09;;;6.02;89.60
61874;BME280;49692;55.052;73.310;2022-10-20T02:14:54;99302.78;;;6.19;88.94
61874;BME280;49692;55.052;73.310;2022-10-20T02:17:33;99302.09;;;6.14;89.43
61874;BME280;49692;55.052;73.310;2022-10-20T02:20:04;99299.91;;;6.27;88.87
61874;BME280;49692;55.052;73.310;2022-10-20T02:22:34;99310.28;;;6.01;89.43
61874;BME280;49692;55.052;73.310;2022-10-20T02:25:01;99314.81;;;5.96;89.78
61874;BME280;49692;55.052;73.310;2022-10-20T02:27:33;99316.13;;;6.10;90.17
61874;BME280;49692;55.052;73.310;2022-10-20T02:30:05;99322.56;;;6.26;89.20
61874;BME280;49692;55.052;73.310;2022-10-20T02:32:35;99319.66;;;6.36;88.88
61874;BME280;49692;55.052;73.310;2022-10-20T02:35:05;99320.75;;;6.28;88.89
61874;BME280;49692;55.052;73.310;2022-10-20T02:37:32;99338.31;;;6.23;89.59
61874;BME280;49692;55.052;73.310;2022-10-20T02:40:00;99335.22;;;6.12;89.34
61874;BME280;49692;55.052;73.310;2022-10-20T02:42:26;99338.97;;;6.01;90.19
61874;BME280;49692;55.052;73.310;2022-10-20T02:44:54;99340.44;;;6.12;89.78
61874;BME280;49692;55.052;73.310;2022-10-20T02:47:22;99342.16;;;6.11;89.34
61874;BME280;49692;55.052;73.310;2022-10-20T02:49:49;99345.44;;;6.18;89.23
61874;BME280;49692;55.052;73.310;2022-10-20T02:52:23;99349.41;;;6.30;88.76
61874;BME280;49692;55.052;73.310;2022-10-20T02:54:51;99348.91;;;6.18;88.55
61874;BME280;49692;55.052;73.310;2022-10-20T02:57:18;99353.41;;;6.42;88.71
61874;BME280;49692;55.052;73.310;2022-10-20T02:59:46;99350.91;;;6.10;89.55
61874;BME280;49692;55.052;73.310;2022-10-20T03:02:13;99357.31;;;6.28;88.46
61874;BME280;49692;55.052;73.310;2022-10-20T03:04:53;99353.97;;;6.50;88.68
61874;BME280;49692;55.052;73.310;2022-10-20T03:07:22;99356.00;;;6.42;88.68
61874;BME280;49692;55.052;73.310;2022-10-20T03:09:50;99352.19;;;6.25;88.11
61874;BME280;49692;55.052;73.310;2022-10-20T03:12:29;99363.47;;;6.53;88.09
61874;BME280;49692;55.052;73.310;2022-10-20T03:14:57;99359.53;;;6.41;88.38
61874;BME280;49692;55.052;73.310;2022-10-20T03:17:25;99367.50;;;6.36;88.69
61874;BME280;49692;55.052;73.310;2022-10-20T03:19:54;99364.69;;;6.42;87.59
61874;BME280;49692;55.052;73.310;2022-10-20T03:22:31;99374.72;;;6.55;88.20
61874;BME280;49692;55.052;73.310;2022-10-20T03:24:59;99369.63;;;6.52;87.73
61874;BME280;49692;55.052;73.310;2022-10-20T03:27:26;99385.31;;;6.50;87.72
61874;BME280;49692;55.052;73.310;2022-10-20T03:29:53;99382.44;;;6.59;86.82
61874;BME280;49692;55.052;73.310;2022-10-20T03:32:22;99379.91;;;6.56;87.56
61874;BME280;49692;55.052;73.310;2022-10-20T03:34:49;99389.69;;;6.49;87.15
61874;BME280;49692;55.052;73.310;2022-10-20T03:37:17;99392.16;;;6.26;87.98
61874;BME280;49692;55.052;73.310;2022-10-20T03:39:44;99392.84;;;6.32;88.10
61874;BME280;49692;55.052;73.310;2022-10-20T03:42:21;99401.47;;;6.34;87.59
61874;BME280;49692;55.052;73.310;2022-10-20T03:45:12;99402.81;;;6.19;88.88
61874;BME280;49692;55.052;73.310;2022-10-20T03:47:39;99408.44;;;6.06;88.30
61874;BME280;49692;55.052;73.310;2022-10-20T03:50:18;99400.56;;;6.36;87.92
61874;BME280;49692;55.052;73.310;2022-10-20T03:52:49;99418.34;;;6.24;87.91
61874;BME280;49692;55.052;73.310;2022-10-20T03:55:18;99410.50;;;6.24;87.86
61874;BME280;49692;55.052;73.310;2022-10-20T03:57:48;99421.09;;;6.19;88.16
61874;BME280;49692;55.052;73.310;2022-10-20T04:00:18;99417.16;;;6.06;88.49
61874;BME280;49692;55.052;73.310;2022-10-20T04:03:08;99424.28;;;5.99;87.99
61874;BME280;49692;55.052;73.310;2022-10-20T04:05:38;99428.28;;;6.11;88.78
61874;BME280;49692;55.052;73.310;2022-10-20T04:08:07;99431.63;;;6.16;88.14
61874;BME280;49692;55.052;73.310;2022-10-20T04:10:34;99434.25;;;6.15;87.60
61874;BME280;49692;55.052;73.310;2022-10-20T04:13:02;99421.78;;;6.53;86.86
61874;BME280;49692;55.052;73.310;2022-10-20T04:15:30;99414.19;;;6.45;86.70
61874;BME280;49692;55.052;73.310;2022-10-20T04:17:59;99422.41;;;6.33;87.46
61874;BME280;49692;55.052;73.310;2022-10-20T04:20:27;99420.81;;;6.56;86.51
61874;BME280;49692;55.052;73.310;2022-10-20T04:22:54;99422.03;;;6.45;86.85
61874;BME280;49692;55.052;73.310;2022-10-20T04:25:21;99419.25;;;6.50;85.90
61874;BME280;49692;55.052;73.310;2022-10-20T04:27:48;99420.13;;;6.51;86.71
61874;BME280;49692;55.052;73.310;2022-10-20T04:30:18;99426.81;;;6.59;85.50
61874;BME280;49692;55.052;73.310;2022-10-20T04:32:45;99438.00;;;6.36;87.56
61874;BME280;49692;55.052;73.310;2022-10-20T04:35:14;99443.78;;;6.16;87.43
61874;BME280;49692;55.052;73.310;2022-10-20T04:37:43;99441.75;;;6.27;87.32
61874;BME280;49692;55.052;73.310;2022-10-20T04:40:11;99432.81;;;6.34;87.70
61874;BME280;49692;55.052;73.310;2022-10-20T04:42:38;99439.06;;;6.57;86.22
61874;BME280;49692;55.052;73.310;2022-10-20T04:45:08;99445.25;;;6.26;86.51
61874;BME280;49692;55.052;73.310;2022-10-20T04:47:37;99439.16;;;6.54;87.18
61874;BME280;49692;55.052;73.310;2022-10-20T04:50:05;99441.53;;;6.89;85.86
61874;BME280;49692;55.052;73.310;2022-10-20T04:52:35;99440.38;;;6.44;86.54
61874;BME280;49692;55.052;73.310;2022-10-20T04:55:03;99447.88;;;6.25;86.80
61874;BME280;49692;55.052;73.310;2022-10-20T04:57:32;99457.00;;;6.68;85.61
61874;BME280;49692;55.052;73.310;2022-10-20T04:59:59;99452.56;;;6.43;85.46
61874;BME280;49692;55.052;73.310;2022-10-20T05:02:27;99453.88;;;6.57;85.95
61874;BME280;49692;55.052;73.310;2022-10-20T05:04:56;99452.81;;;6.62;85.60
61874;BME280;49692;55.052;73.310;2022-10-20T05:07:50;99474.31;;;6.44;85.97
61874;BME280;49692;55.052;73.310;2022-10-20T05:11:06;99470.91;;;6.40;86.19
61874;BME280;49692;55.052;73.310;2022-10-20T05:14:11;99461.88;;;6.79;85.10
61874;BME280;49692;55.052;73.310;2022-10-20T05:16:37;99463.59;;;6.80;84.74
61874;BME280;49692;55.052;73.310;2022-10-20T05:19:14;99454.44;;;6.93;84.20
61874;BME280;49692;55.052;73.310;2022-10-20T05:21:43;99464.72;;;7.00;83.69
61874;BME280;49692;55.052;73.310;2022-10-20T05:24:13;99465.59;;;6.99;83.21
61874;BME280;49692;55.052;73.310;2022-10-20T05:26:41;99453.09;;;6.82;84.08
61874;BME280;49692;55.052;73.310;2022-10-20T05:32:01;99461.34;;;6.96;84.16
61874;BME280;49692;55.052;73.310;2022-10-20T05:34:47;99470.72;;;6.75;84.33
61874;BME280;49692;55.052;73.310;2022-10-20T05:37:17;99473.97;;;7.10;84.18
61874;BME280;49692;55.052;73.310;2022-10-20T05:39:43;99472.69;;;6.95;83.84
61874;BME280;49692;55.052;73.310;2022-10-20T05:42:10;99476.81;;;7.04;82.63
61874;BME280;49692;55.052;73.310;2022-10-20T05:44:45;99475.59;;;6.86;83.50
61874;BME280;49692;55.052;73.310;2022-10-20T05:47:23;99473.16;;;7.08;82.63
61874;BME280;49692;55.052;73.310;2022-10-20T05:49:53;99477.38;;;7.12;82.53
61874;BME280;49692;55.052;73.310;2022-10-20T05:52:33;99463.50;;;7.10;82.66
61874;BME280;49692;55.052;73.310;2022-10-20T05:55:03;99461.72;;;7.37;81.74
61874;BME280;49692;55.052;73.310;2022-10-20T05:57:31;99471.91;;;7.45;81.44
61874;BME280;49692;55.052;73.310;2022-10-20T06:00:03;99473.63;;;7.71;80.70
61874;BME280;49692;55.052;73.310;2022-10-20T06:02:37;99470.75;;;7.54;80.50
61874;BME280;49692;55.052;73.310;2022-10-20T06:05:15;99477.34;;;7.64;80.53
61874;BME280;49692;55.052;73.310;2022-10-20T06:07:52;99475.97;;;7.79;80.53
61874;BME280;49692;55.052;73.310;2022-10-20T06:10:20;99482.66;;;7.63;79.18
61874;BME280;49692;55.052;73.310;2022-10-20T06:12:49;99482.84;;;8.06;78.53
61874;BME280;49692;55.052;73.310;2022-10-20T06:15:27;99491.19;;;8.15;78.75
61874;BME280;49692;55.052;73.310;2022-10-20T06:18:05;99492.88;;;8.18;78.72
61874;BME280;49692;55.052;73.310;2022-10-20T06:20:31;99481.53;;;8.17;77.89
61874;BME280;49692;55.052;73.310;2022-10-20T06:22:58;99485.38;;;8.31;78.59
61874;BME280;49692;55.052;73.310;2022-10-20T06:25:28;99488.63;;;8.60;77.61
61874;BME280;49692;55.052;73.310;2022-10-20T06:28:02;99481.03;;;8.54;76.57
61874;BME280;49692;55.052;73.310;2022-10-20T06:30:29;99501.41;;;7.99;76.99
61874;BME280;49692;55.052;73.310;2022-10-20T06:33:28;99492.34;;;8.08;77.20
61874;BME280;49692;55.052;73.310;2022-10-20T06:36:01;99484.38;;;7.88;77.79
61874;BME280;49692;55.052;73.310;2022-10-20T06:38:31;99483.97;;;8.22;77.39
61874;BME280;49692;55.052;73.310;2022-10-20T06:41:15;99485.38;;;8.55;76.75
61874;BME280;49692;55.052;73.310;2022-10-20T06:43:43;99482.88;;;8.52;75.19
61874;BME280;49692;55.052;73.310;2022-10-20T06:46:16;99480.06;;;8.56;76.25
61874;BME280;49692;55.052;73.310;2022-10-20T06:48:44;99482.53;;;8.37;76.13
61874;BME280;49692;55.052;73.310;2022-10-20T06:51:15;99478.47;;;8.74;74.77
61874;BME280;49692;55.052;73.310;2022-10-20T06:53:44;99476.22;;;8.65;73.88
61874;BME280;49692;55.052;73.310;2022-10-20T06:56:21;99472.38;;;8.52;74.90
61874;BME280;49692;55.052;73.310;2022-10-20T06:58:51;99485.59;;;8.48;74.43
61874;BME280;49692;55.052;73.310;2022-10-20T07:01:26;99488.81;;;8.77;73.12
61874;BME280;49692;55.052;73.310;2022-10-20T07:04:02;99493.25;;;8.31;73.19
61874;BME280;49692;55.052;73.310;2022-10-20T07:06:33;99495.34;;;8.45;73.20
61874;BME280;49692;55.052;73.310;2022-10-20T07:09:25;99492.28;;;7.86;74.98
61874;BME280;49692;55.052;73.310;2022-10-20T07:11:55;99489.94;;;7.78;75.79
61874;BME280;49692;55.052;73.310;2022-10-20T07:14:22;99490.69;;;7.82;74.29
61874;BME280;49692;55.052;73.310;2022-10-20T07:16:59;99492.78;;;7.72;75.11
61874;BME280;49692;55.052;73.310;2022-10-20T07:19:26;99486.81;;;7.92;75.42
61874;BME280;49692;55.052;73.310;2022-10-20T07:21:53;99501.44;;;7.74;76.94
61874;BME280;49692;55.052;73.310;2022-10-20T07:24:25;99497.63;;;8.30;75.04
61874;BME280;49692;55.052;73.310;2022-10-20T07:26:59;99484.03;;;8.21;74.54
61874;BME280;49692;55.052;73.310;2022-10-20T07:29:27;99485.19;;;8.59;74.56
61874;BME280;49692;55.052;73.310;2022-10-20T07:32:01;99487.00;;;8.57;73.32
61874;BME280;49692;55.052;73.310;2022-10-20T07:34:28;99486.03;;;8.60;72.70
61874;BME280;49692;55.052;73.310;2022-10-20T07:36:56;99489.84;;;8.73;72.87
61874;BME280;49692;55.052;73.310;2022-10-20T07:39:27;99480.84;;;8.58;71.91
61874;BME280;49692;55.052;73.310;2022-10-20T07:41:57;99479.97;;;8.58;71.38
61874;BME280;49692;55.052;73.310;2022-10-20T07:44:24;99492.94;;;8.85;71.52
61874;BME280;49692;55.052;73.310;2022-10-20T07:46:53;99475.38;;;9.07;71.17
61874;BME280;49692;55.052;73.310;2022-10-20T07:49:31;99490.78;;;8.72;71.13
61874;BME280;49692;55.052;73.310;2022-10-20T07:51:59;99475.97;;;8.93;70.61
61874;BME280;49692;55.052;73.310;2022-10-20T07:54:32;99489.63;;;8.57;70.48
61874;BME280;49692;55.052;73.310;2022-10-20T07:57:03;99490.59;;;8.55;71.26
61874;BME280;49692;55.052;73.310;2022-10-20T07:59:30;99496.47;;;8.61;71.16
61874;BME280;49692;55.052;73.310;2022-10-20T08:01:56;99487.91;;;8.78;71.13
61874;BME280;49692;55.052;73.310;2022-10-20T08:04:26;99487.06;;;8.56;71.44
61874;BME280;49692;55.052;73.310;2022-10-20T08:06:53;99486.06;;;8.36;71.98
61874;BME280;49692;55.052;73.310;2022-10-20T08:09:24;99478.66;;;8.47;71.39
61874;BME280;49692;55.052;73.310;2022-10-20T08:11:51;99483.09;;;8.45;71.10
61874;BME280;49692;55.052;73.310;2022-10-20T08:14:18;99485.06;;;8.85;70.21
61874;BME280;49692;55.052;73.310;2022-10-20T08:16:46;99482.06;;;8.72;70.71
61874;BME280;49692;55.052;73.310;2022-10-20T08:19:14;99486.03;;;8.60;71.17
61874;BME280;49692;55.052;73.310;2022-10-20T08:21:44;99481.38;;;8.67;70.94
61874;BME280;49692;55.052;73.310;2022-10-20T08:24:13;99484.38;;;8.57;70.58
61874;BME280;49692;55.052;73.310;2022-10-20T08:26:49;99483.78;;;8.51;70.81
61874;BME280;49692;55.052;73.310;2022-10-20T08:29:16;99482.19;;;8.46;70.71
61874;BME280;49692;55.052;73.310;2022-10-20T08:31:46;99478.84;;;8.65;70.13
61874;BME280;49692;55.052;73.310;2022-10-20T08:34:19;99471.50;;;8.73;69.11
61874;BME280;49692;55.052;73.310;2022-10-20T08:36:50;99472.56;;;8.69;68.84
61874;BME280;49692;55.052;73.310;2022-10-20T08:39:20;99483.09;;;8.90;68.09
61874;BME280;49692;55.052;73.310;2022-10-20T08:41:59;99467.88;;;8.77;69.26
61874;BME280;49692;55.052;73.310;2022-10-20T08:44:34;99481.34;;;8.90;67.86
61874;BME280;49692;55.052;73.310;2022-10-20T08:47:39;99479.63;;;9.10;69.04
61874;BME280;49692;55.052;73.310;2022-10-20T08:50:14;99482.06;;;8.94;68.79
61874;BME280;49692;55.052;73.310;2022-10-20T08:52:44;99485.69;;;9.12;68.06
61874;BME280;49692;55.052;73.310;2022-10-20T08:55:25;99476.00;;;8.92;69.14
61874;BME280;49692;55.052;73.310;2022-10-20T08:57:59;99478.34;;;8.77;69.31
61874;BME280;49692;55.052;73.310;2022-10-20T09:00:40;99477.72;;;8.48;69.22
61874;BME280;49692;55.052;73.310;2022-10-20T09:03:29;99473.47;;;8.68;69.73
61874;BME280;49692;55.052;73.310;2022-10-20T09:06:11;99481.03;;;8.54;70.63
61874;BME280;49692;55.052;73.310;2022-10-20T09:08:41;99480.59;;;8.42;71.08
61874;BME280;49692;55.052;73.310;2022-10-20T09:11:23;99494.97;;;8.76;70.08
61874;BME280;49692;55.052;73.310;2022-10-20T09:13:52;99486.09;;;8.81;70.49
61874;BME280;49692;55.052;73.310;2022-10-20T09:16:30;99492.56;;;8.72;70.72
61874;BME280;49692;55.052;73.310;2022-10-20T09:19:13;99499.50;;;8.95;70.42
61874;BME280;49692;55.052;73.310;2022-10-20T09:21:44;99487.97;;;8.99;70.17
61874;BME280;49692;55.052;73.310;2022-10-20T09:24:20;99485.00;;;8.86;70.71
61874;BME280;49692;55.052;73.310;2022-10-20T09:26:51;99494.66;;;9.06;69.98
61874;BME280;49692;55.052;73.310;2022-10-20T09:29:43;99499.59;;;8.92;70.06
61874;BME280;49692;55.052;73.310;2022-10-20T09:32:19;99498.09;;;8.86;69.54
61874;BME280;49692;55.052;73.310;2022-10-20T09:34:48;99503.44;;;8.83;69.38
61874;BME280;49692;55.052;73.310;2022-10-20T09:37:17;99502.81;;;8.78;69.85
61874;BME280;49692;55.052;73.310;2022-10-20T09:40:14;99515.84;;;8.80;70.62
61874;BME280;49692;55.052;73.310;2022-10-20T09:42:53;99505.72;;;8.48;71.02
61874;BME280;49692;55.052;73.310;2022-10-20T09:45:48;99505.53;;;8.53;71.02
61874;BME280;49692;55.052;73.310;2022-10-20T09:48:38;99514.06;;;8.80;71.00
61874;BME280;49692;55.052;73.310;2022-10-20T09:52:02;99514.59;;;8.44;72.06
61874;BME280;49692;55.052;73.310;2022-10-20T09:54:46;99514.81;;;8.61;71.27
61874;BME280;49692;55.052;73.310;2022-10-20T09:57:18;99511.09;;;8.67;71.23
61874;BME280;49692;55.052;73.310;2022-10-20T09:59:50;99524.22;;;8.66;71.78
61874;BME280;49692;55.052;73.310;2022-10-20T10:04:47;99509.94;;;8.28;72.74
61874;BME280;49692;55.052;73.310;2022-10-20T10:07:34;99527.19;;;8.10;73.99
61874;BME280;49692;55.052;73.310;2022-10-20T10:10:23;99511.94;;;8.22;73.83
61874;BME280;49692;55.052;73.310;2022-10-20T10:13:20;99527.63;;;8.22;73.30
61874;BME280;49692;55.052;73.310;2022-10-20T10:15:59;99519.81;;;8.20;73.44
61874;BME280;49692;55.052;73.310;2022-10-20T10:18:31;99521.94;;;8.34;73.60
61874;BME280;49692;55.052;73.310;2022-10-20T10:21:14;99520.59;;;8.24;73.49
61874;BME280;49692;55.052;73.310;2022-10-20T10:29:03;99529.66;;;8.61;73.71
61874;BME280;49692;55.052;73.310;2022-10-20T10:31:34;99528.19;;;8.54;73.33
61874;BME280;49692;55.052;73.310;2022-10-20T10:37:49;99531.75;;;8.51;73.72
61874;BME280;49692;55.052;73.310;2022-10-20T10:40:20;99535.16;;;8.31;74.77
61874;BME280;49692;55.052;73.310;2022-10-20T10:43:14;99534.63;;;8.45;74.37
61874;BME280;49692;55.052;73.310;2022-10-20T10:46:15;99533.09;;;8.39;74.82
61874;BME280;49692;55.052;73.310;2022-10-20T10:59:47;99531.31;;;8.40;75.45
61874;BME280;49692;55.052;73.310;2022-10-20T11:02:54;99533.53;;;8.51;75.27
61874;BME280;49692;55.052;73.310;2022-10-20T11:08:33;99545.78;;;8.26;76.46
61874;BME280;49692;55.052;73.310;2022-10-20T11:12:10;99546.25;;;8.38;76.11
61874;BME280;49692;55.052;73.310;2022-10-20T11:18:12;99564.31;;;8.22;77.29
61874;BME280;49692;55.052;73.310;2022-10-20T11:26:23;99565.44;;;8.38;77.36
61874;BME280;49692;55.052;73.310;2022-10-20T11:28:54;99562.91;;;8.11;78.02
61874;BME280;49692;55.052;73.310;2022-10-20T11:37:17;99563.56;;;8.42;77.80
61874;BME280;49692;55.052;73.310;2022-10-20T11:40:19;99567.03;;;8.42;77.94
61874;BME280;49692;55.052;73.310;2022-10-20T11:46:03;99572.16;;;8.22;78.76
61874;BME280;49692;55.052;73.310;2022-10-20T11:48:46;99557.63;;;8.13;79.93
61874;BME280;49692;55.052;73.310;2022-10-20T11:57:05;99569.16;;;8.32;79.79
61874;BME280;49692;55.052;73.310;2022-10-20T11:59:51;99574.06;;;8.16;80.22
61874;BME280;49692;55.052;73.310;2022-10-20T12:02:38;99567.16;;;7.90;80.52
61874;BME280;49692;55.052;73.310;2022-10-20T12:15:23;99590.22;;;8.04;81.75
61874;BME280;49692;55.052;73.310;2022-10-20T12:17:56;99588.78;;;7.95;82.27
61874;BME280;49692;55.052;73.310;2022-10-20T12:34:59;99597.19;;;8.05;82.96
61874;BME280;49692;55.052;73.310;2022-10-20T12:37:32;99604.06;;;8.08;83.74
61874;BME280;49692;55.052;73.310;2022-10-20T12:40:19;99599.09;;;8.00;83.52
61874;BME280;49692;55.052;73.310;2022-10-20T12:42:58;99606.28;;;7.68;nan
61874;BME280;49692;55.052;73.310;2022-10-20T12:45:45;99605.59;;;7.63;84.74
61874;BME280;49692;55.052;73.310;2022-10-20T12:48:27;99599.41;;;7.65;85.14
61874;BME280;49692;55.052;73.310;2022-10-20T12:51:02;99609.16;;;7.60;84.86
61874;BME280;49692;55.052;73.310;2022-10-20T12:53:32;99616.16;;;7.33;85.96
61874;BME280;49692;55.052;73.310;2022-10-20T12:56:06;99611.34;;;7.47;86.42
61874;BME280;49692;55.052;73.310;2022-10-20T13:10:36;99637.75;;;7.11;88.39
61874;BME280;49692;55.052;73.310;2022-10-20T13:15:44;99639.75;;;7.03;88.79
61874;BME280;49692;55.052;73.310;2022-10-20T13:18:31;99641.31;;;7.08;87.90
61874;BME280;49692;55.052;73.310;2022-10-20T13:24:02;99650.34;;;6.97;88.34
61874;BME280;49692;55.052;73.310;2022-10-20T13:29:40;99654.56;;;7.02;88.92
61874;BME280;49692;55.052;73.310;2022-10-20T13:33:05;99666.50;;;7.11;88.99
61874;BME280;49692;55.052;73.310;2022-10-20T13:35:45;99664.38;;;6.94;89.52
61874;BME280;49692;55.052;73.310;2022-10-20T13:39:20;99674.00;;;6.92;89.09
61874;BME280;49692;55.052;73.310;2022-10-20T13:45:37;99670.63;;;6.88;89.30
61874;BME280;49692;55.052;73.310;2022-10-20T13:48:35;99672.00;;;7.02;89.02
61874;BME280;49692;55.052;73.310;2022-10-20T13:51:16;99670.28;;;7.01;89.50
61874;BME280;49692;55.052;73.310;2022-10-20T13:54:49;99675.44;;;7.04;88.74
61874;BME280;49692;55.052;73.310;2022-10-20T13:57:26;99678.75;;;7.09;88.90
61874;BME280;49692;55.052;73.310;2022-10-20T14:00:01;99682.56;;;6.97;89.02
61874;BME280;49692;55.052;73.310;2022-10-20T14:02:34;99683.84;;;6.82;88.67
61874;BME280;49692;55.052;73.310;2022-10-20T14:05:13;99680.97;;;6.91;88.92
61874;BME280;49692;55.052;73.310;2022-10-20T14:07:44;99673.56;;;6.76;88.65
61874;BME280;49692;55.052;73.310;2022-10-20T14:10:36;99686.41;;;6.85;89.08
61874;BME280;49692;55.052;73.310;2022-10-20T14:13:12;99677.22;;;6.70;89.04
61874;BME280;49692;55.052;73.310;2022-10-20T14:15:56;99680.84;;;6.66;89.75
61874;BME280;49692;55.052;73.310;2022-10-20T14:18:26;99671.75;;;6.48;89.02
61874;BME280;49692;55.052;73.310;2022-10-20T14:20:59;99673.59;;;6.44;90.17
61874;BME280;49692;55.052;73.310;2022-10-20T14:23:35;99674.28;;;6.51;90.15
61874;BME280;49692;55.052;73.310;2022-10-20T14:26:13;99682.31;;;6.43;89.61
61874;BME280;49692;55.052;73.310;2022-10-20T14:28:48;99663.50;;;6.30;89.60
61874;BME280;49692;55.052;73.310;2022-10-20T14:31:22;99674.53;;;6.42;89.69
61874;BME280;49692;55.052;73.310;2022-10-20T14:33:57;99667.28;;;6.20;89.96
61874;BME280;49692;55.052;73.310;2022-10-20T14:36:29;99665.91;;;6.38;89.55
61874;BME280;49692;55.052;73.310;2022-10-20T14:39:00;99678.41;;;6.27;90.00
61874;BME280;49692;55.052;73.310;2022-10-20T14:41:34;99678.06;;;6.39;89.29
61874;BME280;49692;55.052;73.310;2022-10-20T14:44:18;99681.91;;;6.27;89.91
61874;BME280;49692;55.052;73.310;2022-10-20T14:46:49;99686.69;;;6.10;90.21
61874;BME280;49692;55.052;73.310;2022-10-20T14:49:26;99686.53;;;6.16;90.00
61874;BME280;49692;55.052;73.310;2022-10-20T14:54:46;99691.34;;;5.97;89.72
61874;BME280;49692;55.052;73.310;2022-10-20T14:59:55;99691.25;;;6.01;89.96
61874;BME280;49692;55.052;73.310;2022-10-20T15:02:42;99688.88;;;5.92;89.82
61874;BME280;49692;55.052;73.310;2022-10-20T15:08:48;99691.53;;;5.91;89.84
61874;BME280;49692;55.052;73.310;2022-10-20T15:10:58;99683.97;;;5.78;89.72
61874;BME280;49692;55.052;73.310;2022-10-20T15:13:30;99699.16;;;5.98;89.92
61874;BME280;49692;55.052;73.310;2022-10-20T15:16:38;99696.63;;;5.95;89.66
61874;BME280;49692;55.052;73.310;2022-10-20T15:21:58;99707.44;;;5.80;89.63
61874;BME280;49692;55.052;73.310;2022-10-20T15:24:27;99710.25;;;5.70;89.60
61874;BME280;49692;55.052;73.310;2022-10-20T15:26:58;99715.28;;;5.78;90.20
61874;BME280;49692;55.052;73.310;2022-10-20T15:29:30;99715.34;;;5.77;89.91
61874;BME280;49692;55.052;73.310;2022-10-20T15:31:58;99708.91;;;5.54;90.26
61874;BME280;49692;55.052;73.310;2022-10-20T15:34:29;99714.88;;;5.59;89.97
61874;BME280;49692;55.052;73.310;2022-10-20T15:36:56;99713.22;;;5.55;90.07
61874;BME280;49692;55.052;73.310;2022-10-20T15:39:26;99719.91;;;5.67;90.24
61874;BME280;49692;55.052;73.310;2022-10-20T15:41:54;99716.84;;;5.49;90.31
61874;BME280;49692;55.052;73.310;2022-10-20T15:44:21;99722.75;;;5.56;90.70
61874;BME280;49692;55.052;73.310;2022-10-20T15:46:52;99732.22;;;5.60;90.48